createdAt,value
2018-08-31T00:00:11.911Z,999.90
2018-08-31T00:02:42.255Z,999.90
2018-08-31T00:05:50.390Z,999.90
2018-08-31T00:10:37.790Z,999.90
2018-08-31T00:13:05.915Z,999.90
2018-08-31T00:15:33.934Z,999.90
2018-08-31T00:18:02.008Z,999.90
2018-08-31T00:20:30.023Z,999.90
2018-08-31T00:22:58.060Z,999.90
2018-08-31T00:26:08.026Z,999.90
2018-08-31T00:28:48.210Z,999.90
2018-08-31T00:31:56.467Z,999.90
2018-08-31T00:34:35.687Z,999.90
2018-08-31T00:39:21.582Z,999.90
2018-08-31T00:42:01.163Z,999.90
2018-08-31T00:45:38.650Z,999.90
2018-08-31T00:48:06.986Z,999.90
2018-08-31T00:50:35.179Z,999.90
2018-08-31T00:53:03.899Z,999.90
2018-08-31T00:55:32.093Z,999.90
2018-08-31T00:58:00.224Z,999.90
2018-08-31T01:00:28.288Z,999.90
2018-08-31T01:02:56.315Z,999.90
2018-08-31T01:05:24.343Z,999.90
2018-08-31T01:07:52.366Z,999.90
2018-08-31T01:10:21.702Z,999.90
2018-08-31T01:12:50.008Z,999.90
2018-08-31T01:15:18.038Z,999.90
2018-08-31T01:17:46.058Z,999.90
2018-08-31T01:20:14.094Z,999.90
2018-08-31T01:22:42.126Z,999.90
2018-08-31T01:25:10.808Z,999.90
2018-08-31T01:27:38.857Z,999.90
2018-08-31T01:30:07.531Z,999.90
2018-08-31T01:32:35.558Z,999.90
2018-08-31T01:35:03.674Z,999.90
2018-08-31T01:37:31.794Z,999.90
2018-08-31T01:39:59.849Z,999.90
2018-08-31T01:42:27.862Z,999.90
2018-08-31T01:44:55.884Z,999.90
2018-08-31T01:47:23.898Z,999.90
2018-08-31T01:49:51.915Z,999.90
2018-08-31T01:52:19.923Z,999.90
2018-08-31T01:54:47.943Z,999.90
2018-08-31T01:57:15.956Z,999.90
2018-08-31T01:59:43.967Z,999.90
2018-08-31T02:02:11.970Z,999.90
2018-08-31T02:04:40.028Z,999.90
2018-08-31T02:07:08.039Z,999.90
2018-08-31T02:09:36.059Z,999.90
2018-08-31T02:12:04.122Z,999.90
2018-08-31T02:14:32.160Z,999.90
2018-08-31T02:17:00.170Z,999.90
2018-08-31T02:19:28.229Z,999.90
2018-08-31T02:21:56.250Z,999.90
2018-08-31T02:24:24.262Z,999.90
2018-08-31T02:26:52.279Z,999.90
2018-08-31T02:29:20.292Z,999.90
2018-08-31T02:31:48.310Z,999.90
2018-08-31T02:34:16.332Z,999.90
2018-08-31T02:36:44.343Z,999.90
2018-08-31T02:39:12.428Z,999.90
2018-08-31T02:41:40.386Z,999.90
2018-08-31T02:44:08.410Z,999.90
2018-08-31T02:46:36.427Z,999.90
2018-08-31T02:49:04.443Z,999.90
2018-08-31T02:51:32.461Z,999.90
2018-08-31T02:54:00.466Z,999.90
2018-08-31T02:56:28.543Z,999.90
2018-08-31T02:58:56.558Z,999.90
2018-08-31T03:01:24.576Z,999.90
2018-08-31T03:03:52.595Z,999.90
2018-08-31T03:06:20.620Z,999.90
2018-08-31T03:08:48.631Z,999.90
2018-08-31T03:11:16.707Z,999.90
2018-08-31T03:13:44.743Z,999.90
2018-08-31T03:16:12.751Z,999.90
2018-08-31T03:18:40.779Z,999.90
2018-08-31T03:21:08.810Z,999.90
2018-08-31T03:23:36.804Z,999.90
2018-08-31T03:26:04.811Z,999.90
2018-08-31T03:28:32.831Z,999.90
2018-08-31T03:31:00.843Z,999.90
2018-08-31T03:33:28.858Z,999.90
2018-08-31T03:35:56.872Z,999.90
2018-08-31T03:38:24.895Z,999.90
2018-08-31T03:40:52.902Z,999.90
2018-08-31T03:43:20.966Z,999.90
2018-08-31T03:45:48.978Z,999.90
2018-08-31T03:48:16.991Z,999.90
2018-08-31T03:50:45.006Z,999.90
2018-08-31T03:53:13.019Z,999.90
2018-08-31T03:55:41.026Z,999.90
2018-08-31T03:58:09.047Z,999.90
2018-08-31T04:00:37.054Z,999.90
2018-08-31T04:03:05.154Z,999.90
2018-08-31T04:05:33.171Z,999.90
2018-08-31T04:08:01.199Z,999.90
2018-08-31T04:10:29.219Z,999.90
2018-08-31T04:12:57.259Z,999.90
2018-08-31T04:15:25.351Z,999.90
2018-08-31T04:17:53.490Z,999.90
2018-08-31T04:20:21.719Z,999.90
2018-08-31T04:22:50.283Z,999.90
2018-08-31T04:25:18.292Z,999.90
2018-08-31T04:27:46.315Z,999.90
2018-08-31T04:30:14.318Z,999.90
2018-08-31T04:32:42.343Z,999.90
2018-08-31T04:35:10.364Z,999.90
2018-08-31T04:37:38.393Z,999.90
2018-08-31T04:40:06.684Z,999.90
2018-08-31T04:42:34.699Z,999.90
2018-08-31T04:45:02.721Z,999.90
2018-08-31T04:47:30.735Z,999.90
2018-08-31T04:49:58.780Z,999.90
2018-08-31T04:52:26.795Z,999.90
2018-08-31T04:54:54.827Z,999.90
2018-08-31T04:57:22.832Z,999.90
2018-08-31T04:59:50.851Z,999.90
2018-08-31T05:02:18.867Z,999.90
2018-08-31T05:04:46.887Z,999.90
2018-08-31T05:07:14.895Z,999.90
2018-08-31T05:09:42.907Z,999.90
2018-08-31T05:12:10.928Z,999.90
2018-08-31T05:14:38.944Z,999.90
2018-08-31T05:17:06.947Z,999.90
2018-08-31T05:19:34.966Z,999.90
2018-08-31T05:22:02.970Z,999.90
2018-08-31T05:24:30.987Z,999.90
2018-08-31T05:26:59.007Z,999.90
2018-08-31T05:29:27.077Z,999.90
2018-08-31T05:31:55.091Z,999.90
2018-08-31T05:34:23.216Z,999.90
2018-08-31T05:36:51.235Z,999.90
2018-08-31T05:39:19.291Z,999.90
2018-08-31T05:41:47.316Z,999.90
2018-08-31T05:44:15.340Z,999.90
2018-08-31T05:46:43.352Z,999.90
2018-08-31T05:49:11.366Z,999.90
2018-08-31T05:51:39.383Z,999.90
2018-08-31T05:54:07.466Z,999.90
2018-08-31T05:56:35.508Z,999.90
2018-08-31T05:59:03.519Z,999.90
2018-08-31T06:01:31.531Z,999.90
2018-08-31T06:03:59.551Z,999.90
2018-08-31T06:06:27.559Z,999.90
2018-08-31T06:08:55.575Z,999.90
2018-08-31T06:11:23.584Z,999.90
2018-08-31T06:13:51.630Z,999.90
2018-08-31T06:16:19.645Z,999.90
2018-08-31T06:18:47.666Z,999.90
2018-08-31T06:21:15.682Z,999.90
2018-08-31T06:23:43.736Z,999.90
2018-08-31T06:26:11.751Z,999.90
2018-08-31T06:28:39.762Z,999.90
2018-08-31T06:31:07.783Z,999.90
2018-08-31T06:33:35.794Z,999.90
2018-08-31T06:36:03.810Z,999.90
2018-08-31T06:38:31.818Z,999.90
2018-08-31T06:40:59.835Z,999.90
2018-08-31T06:43:27.852Z,999.90
2018-08-31T06:45:55.893Z,999.90
2018-08-31T06:48:23.894Z,999.90
2018-08-31T06:50:51.920Z,999.90
2018-08-31T06:53:19.931Z,999.90
2018-08-31T06:55:47.950Z,999.90
2018-08-31T06:58:15.966Z,999.90
2018-08-31T07:00:43.991Z,999.90
2018-08-31T07:03:12.002Z,999.90
2018-08-31T07:05:40.032Z,999.90
2018-08-31T07:08:08.039Z,999.90
2018-08-31T07:10:36.105Z,999.90
2018-08-31T07:13:04.128Z,999.90
2018-08-31T07:15:32.147Z,999.90
2018-08-31T07:18:00.160Z,999.90
2018-08-31T07:20:28.206Z,999.90
2018-08-31T07:22:56.223Z,999.90
2018-08-31T07:25:24.251Z,999.90
2018-08-31T07:27:52.274Z,999.90
2018-08-31T07:30:20.294Z,999.90
2018-08-31T07:32:48.327Z,999.90
2018-08-31T07:35:16.350Z,999.90
2018-08-31T07:37:44.371Z,999.90
2018-08-31T07:40:12.395Z,999.90
2018-08-31T07:42:40.409Z,999.90
2018-08-31T07:45:08.474Z,999.90
2018-08-31T07:47:36.522Z,999.90
2018-08-31T07:50:04.992Z,999.90
2018-08-31T07:52:33.003Z,999.90
2018-08-31T07:55:01.026Z,999.90
2018-08-31T07:57:29.359Z,999.90
2018-08-31T07:59:57.386Z,999.90
2018-08-31T08:02:25.411Z,999.90
2018-08-31T08:04:53.432Z,999.90
2018-08-31T08:07:21.460Z,999.90
2018-08-31T08:09:49.483Z,999.90
2018-08-31T08:12:17.495Z,999.90
2018-08-31T08:14:45.558Z,999.90
2018-08-31T08:17:13.539Z,999.90
2018-08-31T08:19:41.609Z,999.90
2018-08-31T08:22:09.631Z,999.90
2018-08-31T08:24:37.595Z,999.90
2018-08-31T08:27:05.613Z,999.90
2018-08-31T08:29:33.624Z,999.90
2018-08-31T08:32:01.647Z,999.90
2018-08-31T08:34:29.658Z,999.90
2018-08-31T08:36:57.679Z,999.90
2018-08-31T08:39:25.821Z,999.90
2018-08-31T08:41:53.909Z,999.90
2018-08-31T08:44:21.877Z,999.90
2018-08-31T08:46:49.894Z,999.90
2018-08-31T08:49:17.911Z,999.90
2018-08-31T08:51:45.936Z,999.90
2018-08-31T08:54:13.958Z,999.90
2018-08-31T08:56:41.973Z,999.90
2018-08-31T08:59:09.983Z,999.90
2018-08-31T09:01:37.998Z,999.90
2018-08-31T09:04:06.026Z,999.90
2018-08-31T09:06:34.043Z,999.90
2018-08-31T09:09:02.060Z,999.90
2018-08-31T09:11:30.070Z,999.90
2018-08-31T09:13:58.885Z,999.90
2018-08-31T09:16:26.895Z,999.90
2018-08-31T09:18:54.916Z,999.90
2018-08-31T09:21:22.940Z,999.90
2018-08-31T09:23:50.954Z,999.90
2018-08-31T09:26:19.008Z,999.90
2018-08-31T09:28:47.014Z,999.90
2018-08-31T09:31:16.723Z,999.90
2018-08-31T09:33:44.738Z,999.90
2018-08-31T09:36:13.431Z,999.90
2018-08-31T09:38:41.926Z,999.90
2018-08-31T09:41:09.947Z,999.90
2018-08-31T09:43:37.971Z,999.90
2018-08-31T09:46:06.032Z,999.90
2018-08-31T09:48:34.040Z,999.90
2018-08-31T09:51:02.159Z,999.90
2018-08-31T09:53:30.174Z,999.90
2018-08-31T09:55:58.198Z,999.90
2018-08-31T09:58:26.615Z,999.90
2018-08-31T10:00:54.659Z,999.90
2018-08-31T10:03:24.130Z,999.90
2018-08-31T10:05:52.943Z,999.90
2018-08-31T10:08:21.454Z,999.90
2018-08-31T10:10:49.556Z,999.90
2018-08-31T10:13:17.516Z,999.90
2018-08-31T10:15:45.514Z,999.90
2018-08-31T10:18:13.548Z,999.90
2018-08-31T10:20:41.562Z,999.90
2018-08-31T10:23:09.588Z,999.90
2018-08-31T10:25:37.604Z,999.90
2018-08-31T10:28:05.705Z,999.90
2018-08-31T10:30:33.815Z,999.90
2018-08-31T10:33:01.831Z,999.90
2018-08-31T10:35:29.857Z,999.90
2018-08-31T10:37:57.936Z,999.90
2018-08-31T10:40:26.399Z,999.90
2018-08-31T10:42:54.429Z,999.90
2018-08-31T10:45:22.463Z,999.90
2018-08-31T10:47:50.483Z,999.90
2018-08-31T10:50:18.499Z,999.90
2018-08-31T10:52:46.516Z,999.90
2018-08-31T10:55:14.523Z,999.90
2018-08-31T10:57:42.542Z,999.90
2018-08-31T11:00:10.416Z,999.90
2018-08-31T11:02:38.774Z,999.90
2018-08-31T11:05:06.806Z,999.90
2018-08-31T11:07:34.818Z,999.90
2018-08-31T11:10:02.914Z,999.90
2018-08-31T11:12:30.953Z,999.90
2018-08-31T11:14:58.955Z,999.90
2018-08-31T11:17:26.979Z,999.90
2018-08-31T11:19:55.003Z,999.90
2018-08-31T11:22:23.032Z,999.90
2018-08-31T11:24:51.135Z,999.90
2018-08-31T11:27:19.204Z,999.90
2018-08-31T11:29:47.498Z,999.90
2018-08-31T11:32:15.518Z,999.90
2018-08-31T11:34:43.583Z,999.90
2018-08-31T11:37:11.606Z,999.90
2018-08-31T11:39:39.618Z,999.90
2018-08-31T11:42:08.426Z,999.90
2018-08-31T11:44:36.447Z,999.90
2018-08-31T11:47:04.499Z,999.90
2018-08-31T11:49:32.528Z,999.90
2018-08-31T11:52:00.533Z,999.90
2018-08-31T11:54:28.556Z,999.90
2018-08-31T11:56:56.575Z,999.90
2018-08-31T11:59:24.588Z,999.90
2018-08-31T12:01:52.607Z,999.90
2018-08-31T12:04:20.710Z,999.90
2018-08-31T12:06:48.740Z,999.90
2018-08-31T12:09:16.759Z,999.90
2018-08-31T12:11:44.772Z,999.90
2018-08-31T12:14:12.795Z,999.90
2018-08-31T12:16:40.810Z,999.90
2018-08-31T12:19:08.915Z,999.90
2018-08-31T12:21:36.922Z,999.90
2018-08-31T12:24:04.955Z,999.90
2018-08-31T12:26:32.962Z,999.90
2018-08-31T12:29:01.007Z,999.90
2018-08-31T12:31:29.027Z,999.90
2018-08-31T12:33:57.047Z,999.90
2018-08-31T12:36:25.069Z,999.90
2018-08-31T12:38:53.089Z,999.90
2018-08-31T12:41:21.099Z,999.90
2018-08-31T12:43:49.185Z,999.90
2018-08-31T12:46:17.144Z,999.90
2018-08-31T12:48:45.170Z,999.90
2018-08-31T12:51:13.195Z,999.90
2018-08-31T12:53:41.038Z,999.90
2018-08-31T12:56:09.059Z,999.90
2018-08-31T12:58:37.079Z,808.97
2018-08-31T13:01:05.105Z,999.90
2018-08-31T13:03:33.116Z,999.90
2018-08-31T13:06:01.164Z,999.90
2018-08-31T13:08:29.247Z,999.90
2018-08-31T13:10:57.313Z,907.80
2018-08-31T13:13:25.298Z,999.90
2018-08-31T13:15:53.340Z,999.90
2018-08-31T13:18:21.370Z,999.90
2018-08-31T13:20:49.387Z,999.90
2018-08-31T13:23:17.408Z,999.90
2018-08-31T13:25:45.435Z,996.17
2018-08-31T13:28:13.483Z,999.90
2018-08-31T13:30:43.467Z,999.90
2018-08-31T13:33:11.482Z,999.90
2018-08-31T13:35:39.507Z,999.90
2018-08-31T13:38:07.521Z,999.90
2018-08-31T13:40:35.739Z,999.90
2018-08-31T13:43:03.792Z,985.73
2018-08-31T13:45:31.811Z,999.90
2018-08-31T13:47:59.890Z,999.90
2018-08-31T13:50:27.912Z,999.90
2018-08-31T13:52:56.274Z,999.90
2018-08-31T13:55:24.290Z,999.90
2018-08-31T13:57:52.290Z,816.67
2018-08-31T14:00:20.875Z,908.80
2018-08-31T14:02:48.895Z,937.43
2018-08-31T14:05:16.971Z,803.30
2018-08-31T14:07:44.983Z,846.67
2018-08-31T14:10:12.998Z,841.17
2018-08-31T14:12:47.937Z,895.60
2018-08-31T14:15:15.846Z,893.37
2018-08-31T14:17:43.871Z,816.80
2018-08-31T14:20:11.903Z,919.53
2018-08-31T14:22:39.922Z,936.47
2018-08-31T14:25:07.975Z,981.80
2018-08-31T14:27:35.983Z,999.90
2018-08-31T14:30:04.125Z,999.90
2018-08-31T14:32:32.135Z,999.90
2018-08-31T14:35:00.160Z,910.13
2018-08-31T14:37:28.171Z,944.50
2018-08-31T14:39:56.204Z,986.77
2018-08-31T14:42:24.222Z,988.13
2018-08-31T14:44:52.246Z,918.53
2018-08-31T14:47:20.264Z,896.70
2018-08-31T14:49:48.317Z,832.33
2018-08-31T14:52:16.311Z,916.83
2018-08-31T14:54:44.335Z,764.90
2018-08-31T14:57:12.343Z,881.43
2018-08-31T14:59:40.363Z,901.17
2018-08-31T15:02:08.379Z,905.60
2018-08-31T15:04:36.415Z,683.70
2018-08-31T15:07:04.518Z,999.90
2018-08-31T15:09:32.539Z,995.07
2018-08-31T15:12:00.547Z,938.60
2018-08-31T15:14:28.575Z,999.90
2018-08-31T15:16:56.595Z,999.90
2018-08-31T15:19:24.612Z,847.77
2018-08-31T15:21:52.631Z,921.07
2018-08-31T15:24:20.639Z,809.60
2018-08-31T15:26:48.867Z,762.93
2018-08-31T15:29:16.907Z,713.60
2018-08-31T15:31:45.159Z,821.87
2018-08-31T15:34:13.163Z,374.80
2018-08-31T15:36:41.202Z,245.83
2018-08-31T15:39:10.019Z,482.70
2018-08-31T15:41:38.093Z,285.73
2018-08-31T15:44:06.139Z,452.03
2018-08-31T15:46:34.175Z,444.40
2018-08-31T15:49:02.223Z,783.27
2018-08-31T15:51:30.298Z,820.73
2018-08-31T15:53:58.302Z,901.00
2018-08-31T15:56:26.323Z,877.33
2018-08-31T15:58:54.822Z,747.13
2018-08-31T16:01:22.839Z,975.63
2018-08-31T16:03:50.850Z,811.33
2018-08-31T16:06:18.882Z,847.07
2018-08-31T16:08:46.899Z,934.77
2018-08-31T16:11:14.913Z,916.57
2018-08-31T16:13:42.925Z,510.70
2018-08-31T16:16:11.639Z,555.00
2018-08-31T16:18:39.659Z,726.50
2018-08-31T16:21:07.681Z,440.07
2018-08-31T16:23:35.710Z,535.37
2018-08-31T16:26:03.725Z,559.73
2018-08-31T16:28:31.731Z,734.23
2018-08-31T16:30:59.756Z,750.80
2018-08-31T16:33:27.767Z,974.17
2018-08-31T16:35:55.787Z,983.40
2018-08-31T16:38:23.805Z,962.00
2018-08-31T16:40:51.823Z,997.77
2018-08-31T16:43:19.834Z,998.80
2018-08-31T16:45:47.863Z,999.90
2018-08-31T16:48:15.875Z,999.90
2018-08-31T16:50:43.895Z,999.90
2018-08-31T16:53:11.734Z,995.23
2018-08-31T16:55:39.747Z,999.90
2018-08-31T16:58:07.786Z,999.90
2018-08-31T17:00:35.831Z,983.70
2018-08-31T17:03:03.844Z,999.90
2018-08-31T17:05:31.859Z,999.90
2018-08-31T17:07:59.884Z,999.90
2018-08-31T17:10:27.899Z,999.90
2018-08-31T17:12:55.923Z,999.90
2018-08-31T17:15:23.942Z,999.90
2018-08-31T17:17:51.967Z,999.90
2018-08-31T17:20:19.989Z,999.90
2018-08-31T17:22:48.015Z,999.90
2018-08-31T17:25:16.035Z,999.90
2018-08-31T17:27:49.502Z,999.90
2018-08-31T17:30:20.574Z,999.90
2018-08-31T17:32:54.067Z,999.90
2018-08-31T17:35:27.623Z,999.90
2018-08-31T17:37:57.750Z,999.90
2018-08-31T17:40:25.820Z,999.90
2018-08-31T17:42:53.835Z,999.90
2018-08-31T17:45:21.875Z,999.90
2018-08-31T17:47:50.751Z,999.90
2018-08-31T17:50:18.799Z,999.90
2018-08-31T17:52:47.176Z,999.90
2018-08-31T17:55:15.447Z,999.90
2018-08-31T17:57:43.646Z,999.90
2018-08-31T18:00:11.988Z,999.90
2018-08-31T18:02:40.019Z,999.90
2018-08-31T18:05:08.059Z,999.90
2018-08-31T18:07:36.083Z,999.90
2018-08-31T18:10:04.151Z,999.90
2018-08-31T18:12:32.168Z,999.90
2018-08-31T18:15:00.180Z,999.90
2018-08-31T18:17:28.205Z,999.90
2018-08-31T18:19:56.222Z,999.90
2018-08-31T18:22:24.287Z,999.90
2018-08-31T18:24:52.298Z,999.90
2018-08-31T18:27:20.328Z,999.90
2018-08-31T18:29:48.357Z,999.90
2018-08-31T18:32:16.372Z,999.90
2018-08-31T18:34:44.388Z,999.90
2018-08-31T18:37:12.412Z,999.90
2018-08-31T18:39:40.427Z,999.90
2018-08-31T18:42:08.439Z,999.90
2018-08-31T18:44:36.486Z,999.90
2018-08-31T18:47:04.507Z,999.90
2018-08-31T18:49:32.518Z,999.90
2018-08-31T18:52:00.539Z,999.90
2018-08-31T18:54:28.546Z,999.90
2018-08-31T18:56:56.559Z,999.90
2018-08-31T18:59:24.587Z,999.90
2018-08-31T19:01:52.610Z,999.90
2018-08-31T19:04:20.669Z,999.90
2018-08-31T19:06:50.470Z,999.90
2018-08-31T19:09:18.446Z,999.90
2018-08-31T19:11:46.460Z,999.90
2018-08-31T19:14:15.044Z,999.90
2018-08-31T19:16:43.059Z,999.90
2018-08-31T19:19:11.079Z,999.90
2018-08-31T19:24:03.538Z,999.90
2018-08-31T19:26:31.550Z,999.90
2018-08-31T19:28:59.576Z,999.90
2018-08-31T19:31:27.620Z,999.90
2018-08-31T19:33:55.625Z,999.90
2018-08-31T19:36:23.650Z,999.90
2018-08-31T19:38:51.738Z,999.90
2018-08-31T19:41:19.817Z,999.90
2018-08-31T19:43:47.849Z,999.90
2018-08-31T19:46:15.875Z,999.90
2018-08-31T19:48:43.883Z,999.90
2018-08-31T19:51:11.919Z,999.90
2018-08-31T19:53:40.001Z,999.90
2018-08-31T19:56:07.972Z,999.90
2018-08-31T19:58:35.990Z,999.90
2018-08-31T20:01:04.016Z,999.90
2018-08-31T20:03:32.027Z,999.90
2018-08-31T20:06:00.055Z,999.90
2018-08-31T20:08:28.062Z,999.90
2018-08-31T20:10:56.255Z,999.90
2018-08-31T20:13:24.340Z,999.90
2018-08-31T20:15:52.483Z,999.90
2018-08-31T20:18:20.513Z,999.90
2018-08-31T20:20:48.522Z,999.90
2018-08-31T20:23:16.547Z,999.90
2018-08-31T20:25:44.558Z,999.90
2018-08-31T20:28:12.735Z,999.90
2018-08-31T20:30:40.778Z,999.90
2018-08-31T20:33:08.800Z,999.90
2018-08-31T20:35:36.964Z,999.90
2018-08-31T20:38:05.071Z,999.90
2018-08-31T20:40:33.111Z,999.90
2018-08-31T20:43:01.165Z,999.90
2018-08-31T20:45:29.189Z,999.90
2018-08-31T20:47:57.205Z,999.90
2018-08-31T20:50:25.231Z,999.90
2018-08-31T20:52:53.254Z,999.90
2018-08-31T20:55:21.643Z,999.90
2018-08-31T20:57:49.739Z,999.90
2018-08-31T21:00:17.810Z,999.90
2018-08-31T21:02:45.775Z,999.90
2018-08-31T21:05:13.785Z,999.90
2018-08-31T21:07:41.863Z,999.90
2018-08-31T21:10:09.882Z,999.90
2018-08-31T21:12:37.962Z,999.90
2018-08-31T21:15:05.986Z,999.90
2018-08-31T21:17:33.995Z,999.90
2018-08-31T21:20:02.031Z,999.90
2018-08-31T21:22:30.056Z,999.90
2018-08-31T21:24:58.334Z,999.90
2018-08-31T21:27:26.475Z,999.90
2018-08-31T21:29:54.562Z,999.90
2018-08-31T21:32:22.598Z,999.90
2018-08-31T21:34:50.623Z,999.90
2018-08-31T21:37:18.631Z,999.90
2018-08-31T21:39:46.644Z,999.90
2018-08-31T21:42:14.801Z,999.90
2018-08-31T21:44:42.779Z,999.90
2018-08-31T21:47:10.859Z,999.90
2018-08-31T21:49:38.878Z,999.90
2018-08-31T21:52:06.887Z,999.90
2018-08-31T21:54:34.910Z,999.90
2018-08-31T21:57:02.919Z,999.90
2018-08-31T21:59:30.945Z,971.17
2018-08-31T22:01:58.949Z,978.20
2018-08-31T22:04:26.967Z,930.13
2018-08-31T22:06:54.972Z,999.90
2018-08-31T22:09:22.990Z,960.50
2018-08-31T22:11:51.011Z,996.63
2018-08-31T22:14:19.033Z,852.50
2018-08-31T22:16:47.053Z,899.63
2018-08-31T22:19:15.074Z,870.20
2018-08-31T22:21:43.119Z,913.17
2018-08-31T22:24:11.154Z,999.90
2018-08-31T22:26:39.218Z,965.20
2018-08-31T22:29:07.235Z,768.23
2018-08-31T22:31:35.254Z,764.80
2018-08-31T22:34:03.263Z,959.37
2018-08-31T22:36:31.268Z,999.90
2018-08-31T22:38:59.271Z,881.47
2018-08-31T22:41:27.284Z,987.37
2018-08-31T22:43:55.295Z,999.90
2018-08-31T22:46:24.173Z,999.90
2018-08-31T22:48:52.669Z,857.33
2018-08-31T22:51:21.387Z,865.80
2018-08-31T22:53:49.787Z,974.97
2018-08-31T22:56:17.870Z,961.67
2018-08-31T22:58:48.110Z,957.80
2018-08-31T23:01:16.135Z,992.67
2018-08-31T23:03:44.418Z,961.17
2018-08-31T23:06:12.727Z,902.33
2018-08-31T23:08:40.731Z,885.53
2018-08-31T23:11:09.956Z,913.77
2018-08-31T23:13:39.396Z,937.67
2018-08-31T23:16:07.450Z,825.07
2018-08-31T23:18:35.459Z,817.60
2018-08-31T23:21:03.555Z,974.40
2018-08-31T23:23:37.130Z,948.50
2018-08-31T23:26:05.183Z,992.27
2018-08-31T23:28:33.180Z,965.80
2018-08-31T23:31:01.198Z,957.37
2018-08-31T23:33:29.203Z,996.73
2018-08-31T23:35:57.218Z,990.57
2018-08-31T23:38:25.230Z,990.73
2018-08-31T23:40:53.242Z,996.53
2018-08-31T23:43:21.251Z,996.90
2018-08-31T23:45:49.254Z,998.50
2018-08-31T23:48:17.658Z,974.07
2018-08-31T23:50:45.678Z,989.13
2018-08-31T23:53:13.678Z,990.53
2018-08-31T23:55:41.703Z,958.80
2018-08-31T23:58:09.707Z,960.53
